Nashville, TN (37204)

12:00 PM CDT on May 06, 2015 (GMT -0500)
Radnor Lake | | Change Station
CLOSE
Current Station
Personal Weather Station
Location: Nashville, TN
Elevation: 866 ft
Nearby Weather Stations

Elev 866 ft 36.07 °N, 86.80 °W | Updated 54 seconds ago

Clear
Clear
76.5 °F
Feels Like 78 °F
N
1.6
Wind Variable Wind from North
Gusts 3.1 mph

Today
High -- | Low -- °F
--% Chance of Precip.
Yesterday
High -- | Low -- °F
Precip. -- in
5:49 AM 7:38 PM
Waning Gibbous, 93% visible
Pressure 30.18 in
Visibility 10.0 miles
Clouds Few 5000 ft
Scattered Clouds 8000 ft
Heat Index 78 °F
Dew Point 61 °F
Humidity 59%
Rainfall 0.00 in
Snow Depth Not available.
UV 9 out of 12
Pollen 8.70 out of 12
Air Quality Not available.
Flu Activity Sporadic
METAR KBNA 061653Z 16003KT 10SM FEW050 SCT080 28/13 A3020 RMK AO2 SLP220 T02830128

More Conditions Fewer Conditions

Pressure 30.18 in
Visibility 10.0 miles
Clouds Few 5000 ft
Scattered Clouds 8000 ft
Heat Index 78 °F
Dew Point 61 °F
Humidity 59%
Rainfall 0.00 in
Snow Depth Not available.
UV 9 out of 12
Pollen 8.70 out of 12
Air Quality Not available.
Flu Activity Sporadic
METAR KBNA 061653Z 16003KT 10SM FEW050 SCT080 28/13 A3020 RMK AO2 SLP220 T02830128

More Conditions Fewer Conditions

10-Day Weather Forecast

Almanac

Astronomy

May. 06, 2015 Rise Set
Actual Time
Civil Twilight
Nautical Twilight
Astronomical Twilight
Moon
Length of Visible Light
Length of Day
Tomorrow will be .
, % of the Moon is Illuminated

Today's Extremes

State Highs State Lows

Community

WunderPhotos

Upload Photos

1,818,954 photos uploaded!

WunderBlogs® & News

Nearby

Air Quality

  Air Quality AQ Index Pollutant
Not available.

Snow Depth

Station Depth Elevation

Earthquake Activity

City Distance Mag. Time & Date
Minimum magnitude displayed is 2.5.

Coastal Water Temperatures

Place Temperature

Stations

Nearby Weather Stations

Station Location Temp. Windchill Dew Point Humidity Wind Precip. Elev Updated Type